Penticton Airport
CYYF : rendu visible

Aérodrome :











RETROUVEZ-NOUS SUR...

 
LOGIN :

S'inscrire | Disclaimer

   EN    FR    IT 

 









Légende :    VFR   VFR Marginal   IFR   IFR Intensif   IFR Très Intensif
Visi : 
Plafond : 
>= 8 km
>= 3000ft
5 à 8 km
1000 à 3000 ft
1500m à 5 km
500 à 1000 ft
800 à 1500m
200 à 500 ft
< 800m
< 200 ft
Symboles :   Orages  Brouillard  Fortes neiges  Fortes précipitations  Vent > 20 kt






- Altitude de l'aérodrome : 1129 ft
- Code IATA : YYF


CYYF - Penticton

DERNIER METAR :
  • 100700Z 32003KT 15SM BKN020 M02/M04 A3031 RMK SC6 SLP283

METARs EXPIRÉS :
  • 100600Z 35005KT 15SM BKN020 M03/M05 A3031 RMK SC6 SLP284
  • 100500Z 01003KT 15SM BKN021 M03/M05 A3031 RMK SC5 SLP284
  • 100437Z 01005KT 15SM BKN020 BKN230 M03/M05 A3031 RMK SC5CI1 SLP287

TAF TAF CYYF
Valide du 10 à 07h jusqu'au 10 à 19h UTC


100638Z 1007/1019 36005KT P6SM BKN020 BKN230
TEMPO 1007/1019 SCT020 RMK NXT FCST BY 101300Z



MET'MAP, la Météo Aéronautique d'un coup d'oeil ! - Copyright ORBIFLY Décembre 2007 - Disclaimer

ORBIFLY MET'MAP TEAM :

Programmation & Développement : Alexandra Zaïnal
Sur une idée originale de : Baudouin d'Aumeries
Assistance à la programmation : Marc-Olivier Méhu
Soutien technique & logistique : Manuel Goepfert

Contact : metmap@orbifly.com




SOURCES & CREDITS :

   NOAA       Earth
Advisory